sensor_id;sensor_type;location;lat;lon;timestamp;P1;durP1;ratioP1;P2;durP2;ratioP2
44822;SDS011;51097;51.984;5.650;2022-10-04T00:02:20;13.20;;;10.77;;
44822;SDS011;51097;51.984;5.650;2022-10-04T00:04:54;17.52;;;12.27;;
44822;SDS011;51097;51.984;5.650;2022-10-04T00:07:47;12.85;;;10.68;;
44822;SDS011;51097;51.984;5.650;2022-10-04T00:10:20;19.85;;;11.25;;
44822;SDS011;51097;51.984;5.650;2022-10-04T00:13:01;15.85;;;11.40;;
44822;SDS011;51097;51.984;5.650;2022-10-04T00:15:30;21.42;;;11.50;;
44822;SDS011;51097;51.984;5.650;2022-10-04T00:18:17;18.33;;;11.98;;
44822;SDS011;51097;51.984;5.650;2022-10-04T00:25:55;17.20;;;12.27;;
44822;SDS011;51097;51.984;5.650;2022-10-04T00:28:30;26.40;;;11.50;;
44822;SDS011;51097;51.984;5.650;2022-10-04T00:31:25;19.83;;;12.65;;
44822;SDS011;51097;51.984;5.650;2022-10-04T00:39:16;14.02;;;12.00;;
44822;SDS011;51097;51.984;5.650;2022-10-04T00:46:47;17.58;;;12.90;;
44822;SDS011;51097;51.984;5.650;2022-10-04T00:49:15;19.35;;;13.05;;
44822;SDS011;51097;51.984;5.650;2022-10-04T00:52:01;17.17;;;12.90;;
44822;SDS011;51097;51.984;5.650;2022-10-04T00:54:40;19.08;;;14.30;;
44822;SDS011;51097;51.984;5.650;2022-10-04T00:57:15;17.83;;;13.50;;
44822;SDS011;51097;51.984;5.650;2022-10-04T00:59:47;18.77;;;13.65;;
44822;SDS011;51097;51.984;5.650;2022-10-04T01:02:25;17.90;;;13.02;;
44822;SDS011;51097;51.984;5.650;2022-10-04T01:04:59;20.70;;;14.43;;
44822;SDS011;51097;51.984;5.650;2022-10-04T01:07:36;20.15;;;13.85;;
44822;SDS011;51097;51.984;5.650;2022-10-04T01:10:21;19.50;;;13.65;;
44822;SDS011;51097;51.984;5.650;2022-10-04T01:18:05;17.27;;;13.10;;
44822;SDS011;51097;51.984;5.650;2022-10-04T01:28:59;16.80;;;13.25;;
44822;SDS011;51097;51.984;5.650;2022-10-04T01:31:31;19.27;;;14.25;;
44822;SDS011;51097;51.984;5.650;2022-10-04T01:33:59;20.95;;;14.20;;
44822;SDS011;51097;51.984;5.650;2022-10-04T01:36:26;20.70;;;15.68;;
44822;SDS011;51097;51.984;5.650;2022-10-04T01:38:52;17.80;;;15.05;;
44822;SDS011;51097;51.984;5.650;2022-10-04T01:41:20;21.80;;;15.13;;
44822;SDS011;51097;51.984;5.650;2022-10-04T01:44:09;16.15;;;14.02;;
44822;SDS011;51097;51.984;5.650;2022-10-04T01:46:42;20.63;;;16.25;;
44822;SDS011;51097;51.984;5.650;2022-10-04T01:49:13;16.08;;;13.93;;
44822;SDS011;51097;51.984;5.650;2022-10-04T01:54:35;17.02;;;13.50;;
44822;SDS011;51097;51.984;5.650;2022-10-04T01:57:12;21.33;;;14.07;;
44822;SDS011;51097;51.984;5.650;2022-10-04T01:59:49;20.40;;;13.93;;
44822;SDS011;51097;51.984;5.650;2022-10-04T02:03:23;18.17;;;14.23;;
44822;SDS011;51097;51.984;5.650;2022-10-04T02:05:24;19.25;;;14.82;;
44822;SDS011;51097;51.984;5.650;2022-10-04T02:07:54;25.65;;;15.20;;
44822;SDS011;51097;51.984;5.650;2022-10-04T02:10:20;17.25;;;15.23;;
44822;SDS011;51097;51.984;5.650;2022-10-04T02:12:50;19.63;;;15.95;;
44822;SDS011;51097;51.984;5.650;2022-10-04T02:15:18;22.45;;;14.65;;
44822;SDS011;51097;51.984;5.650;2022-10-04T02:17:50;15.02;;;13.05;;
44822;SDS011;51097;51.984;5.650;2022-10-04T02:20:19;19.30;;;15.13;;
44822;SDS011;51097;51.984;5.650;2022-10-04T02:22:48;19.52;;;15.50;;
44822;SDS011;51097;51.984;5.650;2022-10-04T02:25:17;19.63;;;15.23;;
44822;SDS011;51097;51.984;5.650;2022-10-04T02:27:44;18.40;;;14.95;;
44822;SDS011;51097;51.984;5.650;2022-10-04T02:30:11;22.92;;;15.82;;
44822;SDS011;51097;51.984;5.650;2022-10-04T02:32:38;20.52;;;16.38;;
44822;SDS011;51097;51.984;5.650;2022-10-04T02:35:31;16.40;;;14.70;;
44822;SDS011;51097;51.984;5.650;2022-10-04T02:41:01;19.15;;;14.40;;
44822;SDS011;51097;51.984;5.650;2022-10-04T02:46:22;19.17;;;14.18;;
44822;SDS011;51097;51.984;5.650;2022-10-04T02:51:30;17.60;;;13.35;;
44822;SDS011;51097;51.984;5.650;2022-10-04T02:56:56;21.17;;;15.73;;
44822;SDS011;51097;51.984;5.650;2022-10-04T02:59:23;23.58;;;16.65;;
44822;SDS011;51097;51.984;5.650;2022-10-04T03:01:51;20.83;;;15.95;;
44822;SDS011;51097;51.984;5.650;2022-10-04T03:04:22;24.33;;;17.38;;
44822;SDS011;51097;51.984;5.650;2022-10-04T03:06:51;19.30;;;16.70;;
44822;SDS011;51097;51.984;5.650;2022-10-04T03:09:19;21.33;;;16.08;;
44822;SDS011;51097;51.984;5.650;2022-10-04T03:11:47;23.58;;;17.05;;
44822;SDS011;51097;51.984;5.650;2022-10-04T03:14:15;23.67;;;17.73;;
44822;SDS011;51097;51.984;5.650;2022-10-04T03:16:44;19.73;;;16.00;;
44822;SDS011;51097;51.984;5.650;2022-10-04T03:19:11;18.40;;;16.40;;
44822;SDS011;51097;51.984;5.650;2022-10-04T03:21:39;20.15;;;15.82;;
44822;SDS011;51097;51.984;5.650;2022-10-04T03:24:08;19.15;;;15.85;;
44822;SDS011;51097;51.984;5.650;2022-10-04T03:26:45;21.05;;;18.02;;
44822;SDS011;51097;51.984;5.650;2022-10-04T03:29:13;18.25;;;15.30;;
44822;SDS011;51097;51.984;5.650;2022-10-04T03:31:42;28.83;;;18.05;;
44822;SDS011;51097;51.984;5.650;2022-10-04T03:34:14;19.75;;;17.38;;
44822;SDS011;51097;51.984;5.650;2022-10-04T03:36:42;22.80;;;17.27;;
44822;SDS011;51097;51.984;5.650;2022-10-04T03:39:11;23.08;;;17.48;;
44822;SDS011;51097;51.984;5.650;2022-10-04T03:41:51;19.92;;;16.45;;
44822;SDS011;51097;51.984;5.650;2022-10-04T03:44:17;22.15;;;15.55;;
44822;SDS011;51097;51.984;5.650;2022-10-04T03:46:43;22.85;;;19.05;;
44822;SDS011;51097;51.984;5.650;2022-10-04T03:49:16;21.35;;;16.42;;
44822;SDS011;51097;51.984;5.650;2022-10-04T03:51:47;20.55;;;17.77;;
44822;SDS011;51097;51.984;5.650;2022-10-04T03:54:15;25.08;;;17.48;;
44822;SDS011;51097;51.984;5.650;2022-10-04T03:56:46;20.88;;;17.27;;
44822;SDS011;51097;51.984;5.650;2022-10-04T03:59:13;22.63;;;17.77;;
44822;SDS011;51097;51.984;5.650;2022-10-04T04:02:16;21.73;;;17.65;;
44822;SDS011;51097;51.984;5.650;2022-10-04T04:04:55;19.88;;;17.63;;
44822;SDS011;51097;51.984;5.650;2022-10-04T04:12:51;20.98;;;16.80;;
44822;SDS011;51097;51.984;5.650;2022-10-04T04:15:44;20.75;;;18.15;;
44822;SDS011;51097;51.984;5.650;2022-10-04T04:18:13;23.27;;;18.20;;
44822;SDS011;51097;51.984;5.650;2022-10-04T04:20:45;21.90;;;18.02;;
44822;SDS011;51097;51.984;5.650;2022-10-04T04:23:31;27.15;;;18.85;;
44822;SDS011;51097;51.984;5.650;2022-10-04T04:26:09;21.23;;;18.52;;
44822;SDS011;51097;51.984;5.650;2022-10-04T04:28:44;25.92;;;19.05;;
44822;SDS011;51097;51.984;5.650;2022-10-04T04:34:31;21.10;;;18.83;;
44822;SDS011;51097;51.984;5.650;2022-10-04T04:37:08;27.00;;;18.40;;
44822;SDS011;51097;51.984;5.650;2022-10-04T04:39:35;25.90;;;18.40;;
44822;SDS011;51097;51.984;5.650;2022-10-04T04:42:02;26.42;;;18.23;;
44822;SDS011;51097;51.984;5.650;2022-10-04T04:44:34;24.27;;;18.02;;
44822;SDS011;51097;51.984;5.650;2022-10-04T04:47:12;25.55;;;18.55;;
44822;SDS011;51097;51.984;5.650;2022-10-04T04:49:56;28.73;;;20.55;;
44822;SDS011;51097;51.984;5.650;2022-10-04T04:52:26;22.50;;;18.92;;
44822;SDS011;51097;51.984;5.650;2022-10-04T04:54:53;31.63;;;20.13;;
44822;SDS011;51097;51.984;5.650;2022-10-04T04:57:20;21.55;;;18.77;;
44822;SDS011;51097;51.984;5.650;2022-10-04T04:59:46;23.88;;;19.17;;
44822;SDS011;51097;51.984;5.650;2022-10-04T05:02:31;24.73;;;19.80;;
44822;SDS011;51097;51.984;5.650;2022-10-04T05:07:45;24.92;;;18.63;;
44822;SDS011;51097;51.984;5.650;2022-10-04T05:10:28;25.15;;;19.42;;
44822;SDS011;51097;51.984;5.650;2022-10-04T05:12:56;26.42;;;19.05;;
44822;SDS011;51097;51.984;5.650;2022-10-04T05:15:24;25.80;;;20.10;;
44822;SDS011;51097;51.984;5.650;2022-10-04T05:17:50;29.77;;;20.30;;
44822;SDS011;51097;51.984;5.650;2022-10-04T05:20:16;23.73;;;19.30;;
44822;SDS011;51097;51.984;5.650;2022-10-04T05:22:44;28.00;;;18.70;;
44822;SDS011;51097;51.984;5.650;2022-10-04T05:25:16;23.77;;;19.00;;
44822;SDS011;51097;51.984;5.650;2022-10-04T05:27:49;23.90;;;19.20;;
44822;SDS011;51097;51.984;5.650;2022-10-04T05:30:34;29.20;;;20.83;;
44822;SDS011;51097;51.984;5.650;2022-10-04T05:33:19;24.95;;;18.98;;
44822;SDS011;51097;51.984;5.650;2022-10-04T05:41:37;24.90;;;18.67;;
44822;SDS011;51097;51.984;5.650;2022-10-04T05:44:28;27.20;;;18.95;;
44822;SDS011;51097;51.984;5.650;2022-10-04T05:46:59;22.48;;;18.63;;
44822;SDS011;51097;51.984;5.650;2022-10-04T05:49:27;26.50;;;20.52;;
44822;SDS011;51097;51.984;5.650;2022-10-04T05:52:05;32.10;;;21.40;;
44822;SDS011;51097;51.984;5.650;2022-10-04T05:54:39;22.85;;;20.25;;
44822;SDS011;51097;51.984;5.650;2022-10-04T05:57:11;28.17;;;20.58;;
44822;SDS011;51097;51.984;5.650;2022-10-04T06:24:28;34.90;;;20.90;;
44822;SDS011;51097;51.984;5.650;2022-10-04T06:27:00;26.08;;;19.80;;
44822;SDS011;51097;51.984;5.650;2022-10-04T06:29:54;28.30;;;22.40;;
44822;SDS011;51097;51.984;5.650;2022-10-04T06:35:22;25.60;;;19.27;;
44822;SDS011;51097;51.984;5.650;2022-10-04T06:40:59;23.75;;;18.73;;
44822;SDS011;51097;51.984;5.650;2022-10-04T06:43:44;26.85;;;19.20;;
44822;SDS011;51097;51.984;5.650;2022-10-04T06:54:29;25.00;;;18.70;;
44822;SDS011;51097;51.984;5.650;2022-10-04T07:02:43;27.48;;;18.98;;
44822;SDS011;51097;51.984;5.650;2022-10-04T07:08:16;24.50;;;18.38;;
44822;SDS011;51097;51.984;5.650;2022-10-04T07:10:56;23.48;;;19.10;;
44822;SDS011;51097;51.984;5.650;2022-10-04T07:13:44;31.10;;;19.77;;
44822;SDS011;51097;51.984;5.650;2022-10-04T07:18:45;32.38;;;20.80;;
44822;SDS011;51097;51.984;5.650;2022-10-04T07:21:26;25.13;;;20.40;;
44822;SDS011;51097;51.984;5.650;2022-10-04T07:24:04;30.58;;;20.92;;
44822;SDS011;51097;51.984;5.650;2022-10-04T07:26:36;31.05;;;20.58;;
44822;SDS011;51097;51.984;5.650;2022-10-04T07:29:23;26.85;;;19.02;;
44822;SDS011;51097;51.984;5.650;2022-10-04T07:32:02;26.10;;;18.70;;
44822;SDS011;51097;51.984;5.650;2022-10-04T07:34:35;22.27;;;17.67;;
44822;SDS011;51097;51.984;5.650;2022-10-04T07:37:22;27.90;;;18.77;;
44822;SDS011;51097;51.984;5.650;2022-10-04T07:42:32;25.23;;;18.70;;
44822;SDS011;51097;51.984;5.650;2022-10-04T07:48:11;23.67;;;16.67;;
44822;SDS011;51097;51.984;5.650;2022-10-04T07:53:26;23.98;;;17.23;;
44822;SDS011;51097;51.984;5.650;2022-10-04T07:58:41;21.92;;;15.35;;
44822;SDS011;51097;51.984;5.650;2022-10-04T08:01:16;21.92;;;15.57;;
44822;SDS011;51097;51.984;5.650;2022-10-04T08:03:54;21.27;;;15.27;;
44822;SDS011;51097;51.984;5.650;2022-10-04T08:12:03;18.92;;;14.00;;
44822;SDS011;51097;51.984;5.650;2022-10-04T08:14:45;20.92;;;15.13;;
44822;SDS011;51097;51.984;5.650;2022-10-04T08:25:17;17.80;;;13.98;;
44822;SDS011;51097;51.984;5.650;2022-10-04T08:36:55;18.58;;;12.93;;
44822;SDS011;51097;51.984;5.650;2022-10-04T08:51:20;16.17;;;11.77;;
44822;SDS011;51097;51.984;5.650;2022-10-04T09:02:23;18.40;;;10.75;;
44822;SDS011;51097;51.984;5.650;2022-10-04T09:11:03;12.32;;;10.15;;
44822;SDS011;51097;51.984;5.650;2022-10-04T09:28:43;14.73;;;10.95;;
44822;SDS011;51097;51.984;5.650;2022-10-04T09:36:36;17.75;;;9.55;;
44822;SDS011;51097;51.984;5.650;2022-10-04T09:50:39;12.80;;;8.88;;
44822;SDS011;51097;51.984;5.650;2022-10-04T09:59:01;15.57;;;10.50;;
44822;SDS011;51097;51.984;5.650;2022-10-04T10:08:04;18.50;;;7.85;;
44822;SDS011;51097;51.984;5.650;2022-10-04T10:13:59;10.02;;;7.80;;
44822;SDS011;51097;51.984;5.650;2022-10-04T10:25:46;10.82;;;7.80;;
44822;SDS011;51097;51.984;5.650;2022-10-04T10:28:27;15.32;;;8.77;;
44822;SDS011;51097;51.984;5.650;2022-10-04T10:40:22;16.95;;;8.48;;
44822;SDS011;51097;51.984;5.650;2022-10-04T10:43:20;16.15;;;8.77;;
44822;SDS011;51097;51.984;5.650;2022-10-04T11:00:22;10.98;;;8.77;;
44822;SDS011;51097;51.984;5.650;2022-10-04T11:06:04;11.32;;;7.65;;
44822;SDS011;51097;51.984;5.650;2022-10-04T11:09:02;14.32;;;7.60;;
44822;SDS011;51097;51.984;5.650;2022-10-04T11:20:21;16.10;;;8.57;;
44822;SDS011;51097;51.984;5.650;2022-10-04T11:28:41;12.82;;;8.35;;
44822;SDS011;51097;51.984;5.650;2022-10-04T11:37:16;12.00;;;7.68;;
44822;SDS011;51097;51.984;5.650;2022-10-04T12:04:11;11.00;;;6.90;;
44822;SDS011;51097;51.984;5.650;2022-10-04T12:18:40;13.27;;;5.45;;
44822;SDS011;51097;51.984;5.650;2022-10-04T12:32:55;7.22;;;5.95;;
44822;SDS011;51097;51.984;5.650;2022-10-04T12:35:49;8.98;;;5.35;;
44822;SDS011;51097;51.984;5.650;2022-10-04T12:38:48;8.10;;;5.32;;
44822;SDS011;51097;51.984;5.650;2022-10-04T12:41:40;10.23;;;5.90;;
44822;SDS011;51097;51.984;5.650;2022-10-04T12:47:02;7.10;;;5.05;;
44822;SDS011;51097;51.984;5.650;2022-10-04T12:52:19;6.78;;;5.55;;
44822;SDS011;51097;51.984;5.650;2022-10-04T12:54:54;7.65;;;5.45;;
44822;SDS011;51097;51.984;5.650;2022-10-04T12:57:43;9.70;;;5.80;;
44822;SDS011;51097;51.984;5.650;2022-10-04T13:00:31;6.60;;;5.13;;
44822;SDS011;51097;51.984;5.650;2022-10-04T13:06:15;9.23;;;5.88;;
44822;SDS011;51097;51.984;5.650;2022-10-04T13:22:48;7.60;;;5.00;;
44822;SDS011;51097;51.984;5.650;2022-10-04T13:31:03;10.95;;;5.35;;
44822;SDS011;51097;51.984;5.650;2022-10-04T13:33:35;8.48;;;5.30;;
44822;SDS011;51097;51.984;5.650;2022-10-04T13:41:46;12.70;;;5.68;;
44822;SDS011;51097;51.984;5.650;2022-10-04T13:47:10;9.68;;;5.80;;
44822;SDS011;51097;51.984;5.650;2022-10-04T13:52:45;8.95;;;5.97;;
44822;SDS011;51097;51.984;5.650;2022-10-04T14:15:26;9.10;;;5.35;;
44822;SDS011;51097;51.984;5.650;2022-10-04T14:35:25;9.25;;;4.90;;
44822;SDS011;51097;51.984;5.650;2022-10-04T14:52:16;7.20;;;5.25;;
44822;SDS011;51097;51.984;5.650;2022-10-04T14:57:59;5.68;;;4.10;;
44822;SDS011;51097;51.984;5.650;2022-10-04T15:06:34;10.68;;;4.85;;
44822;SDS011;51097;51.984;5.650;2022-10-04T15:11:58;8.40;;;4.70;;
44822;SDS011;51097;51.984;5.650;2022-10-04T15:20:20;10.45;;;4.43;;
44822;SDS011;51097;51.984;5.650;2022-10-04T15:23:07;9.63;;;6.15;;
44822;SDS011;51097;51.984;5.650;2022-10-04T15:31:27;8.55;;;5.10;;
44822;SDS011;51097;51.984;5.650;2022-10-04T15:33:59;6.50;;;3.97;;
44822;SDS011;51097;51.984;5.650;2022-10-04T15:42:24;5.75;;;4.57;;
44822;SDS011;51097;51.984;5.650;2022-10-04T16:01:39;7.32;;;4.15;;
44822;SDS011;51097;51.984;5.650;2022-10-04T16:04:45;8.95;;;4.85;;
44822;SDS011;51097;51.984;5.650;2022-10-04T16:07:30;9.13;;;4.40;;
44822;SDS011;51097;51.984;5.650;2022-10-04T16:13:43;9.88;;;4.22;;
44822;SDS011;51097;51.984;5.650;2022-10-04T16:22:05;6.28;;;4.68;;
44822;SDS011;51097;51.984;5.650;2022-10-04T16:30:25;7.43;;;4.50;;
44822;SDS011;51097;51.984;5.650;2022-10-04T16:38:44;7.93;;;4.60;;
44822;SDS011;51097;51.984;5.650;2022-10-04T16:43:59;9.05;;;4.97;;
44822;SDS011;51097;51.984;5.650;2022-10-04T16:46:35;7.43;;;5.00;;
44822;SDS011;51097;51.984;5.650;2022-10-04T16:49:32;8.35;;;5.13;;
44822;SDS011;51097;51.984;5.650;2022-10-04T16:55:00;8.55;;;4.78;;
44822;SDS011;51097;51.984;5.650;2022-10-04T16:57:30;8.30;;;5.47;;
44822;SDS011;51097;51.984;5.650;2022-10-04T16:59:56;7.63;;;5.10;;
44822;SDS011;51097;51.984;5.650;2022-10-04T17:08:02;5.95;;;4.85;;
44822;SDS011;51097;51.984;5.650;2022-10-04T17:16:13;10.40;;;6.30;;
44822;SDS011;51097;51.984;5.650;2022-10-04T17:21:42;8.73;;;6.05;;
44822;SDS011;51097;51.984;5.650;2022-10-04T17:24:19;8.10;;;6.47;;
44822;SDS011;51097;51.984;5.650;2022-10-04T17:26:58;10.02;;;6.05;;
44822;SDS011;51097;51.984;5.650;2022-10-04T17:32:39;10.40;;;6.28;;
44822;SDS011;51097;51.984;5.650;2022-10-04T17:38:30;7.80;;;6.60;;
44822;SDS011;51097;51.984;5.650;2022-10-04T17:46:57;11.17;;;6.73;;
44822;SDS011;51097;51.984;5.650;2022-10-04T17:52:19;12.43;;;7.60;;
44822;SDS011;51097;51.984;5.650;2022-10-04T17:55:16;8.30;;;6.95;;
44822;SDS011;51097;51.984;5.650;2022-10-04T18:00:24;10.85;;;6.50;;
44822;SDS011;51097;51.984;5.650;2022-10-04T18:03:10;7.32;;;6.55;;
44822;SDS011;51097;51.984;5.650;2022-10-04T18:11:05;12.32;;;6.82;;
44822;SDS011;51097;51.984;5.650;2022-10-04T18:13:49;8.18;;;6.40;;
44822;SDS011;51097;51.984;5.650;2022-10-04T18:16:28;9.50;;;7.60;;
44822;SDS011;51097;51.984;5.650;2022-10-04T18:18:55;6.88;;;6.20;;
44822;SDS011;51097;51.984;5.650;2022-10-04T18:21:26;9.05;;;6.78;;
44822;SDS011;51097;51.984;5.650;2022-10-04T18:26:30;9.30;;;6.95;;
44822;SDS011;51097;51.984;5.650;2022-10-04T18:28:57;15.77;;;8.55;;
44822;SDS011;51097;51.984;5.650;2022-10-04T18:33:53;12.00;;;9.15;;
44822;SDS011;51097;51.984;5.650;2022-10-04T18:36:23;10.75;;;9.65;;
44822;SDS011;51097;51.984;5.650;2022-10-04T18:38:59;12.93;;;9.15;;
44822;SDS011;51097;51.984;5.650;2022-10-04T18:41:29;14.45;;;8.98;;
44822;SDS011;51097;51.984;5.650;2022-10-04T18:44:15;11.30;;;8.23;;
44822;SDS011;51097;51.984;5.650;2022-10-04T18:46:44;13.00;;;8.98;;
44822;SDS011;51097;51.984;5.650;2022-10-04T18:49:18;15.43;;;9.00;;
44822;SDS011;51097;51.984;5.650;2022-10-04T18:51:50;13.73;;;8.88;;
44822;SDS011;51097;51.984;5.650;2022-10-04T19:08:47;13.48;;;8.30;;
44822;SDS011;51097;51.984;5.650;2022-10-04T19:11:20;13.05;;;8.13;;
44822;SDS011;51097;51.984;5.650;2022-10-04T19:27:01;9.77;;;7.05;;
44822;SDS011;51097;51.984;5.650;2022-10-04T19:40:57;11.68;;;8.07;;
44822;SDS011;51097;51.984;5.650;2022-10-04T19:44:14;11.10;;;7.47;;
44822;SDS011;51097;51.984;5.650;2022-10-04T19:48:42;10.38;;;7.28;;
44822;SDS011;51097;51.984;5.650;2022-10-04T19:51:33;13.05;;;8.15;;
44822;SDS011;51097;51.984;5.650;2022-10-04T19:54:14;11.70;;;7.88;;
44822;SDS011;51097;51.984;5.650;2022-10-04T19:56:46;10.82;;;7.50;;
44822;SDS011;51097;51.984;5.650;2022-10-04T19:59:14;9.15;;;7.65;;
44822;SDS011;51097;51.984;5.650;2022-10-04T20:01:50;11.73;;;7.47;;
44822;SDS011;51097;51.984;5.650;2022-10-04T20:04:17;10.15;;;7.90;;
44822;SDS011;51097;51.984;5.650;2022-10-04T20:07:02;10.88;;;8.32;;
44822;SDS011;51097;51.984;5.650;2022-10-04T20:12:28;11.90;;;7.97;;
44822;SDS011;51097;51.984;5.650;2022-10-04T20:23:05;12.55;;;8.68;;
44822;SDS011;51097;51.984;5.650;2022-10-04T20:28:55;10.20;;;7.97;;
44822;SDS011;51097;51.984;5.650;2022-10-04T20:31:06;14.45;;;8.48;;
44822;SDS011;51097;51.984;5.650;2022-10-04T20:36:03;11.68;;;8.65;;
44822;SDS011;51097;51.984;5.650;2022-10-04T20:38:41;9.77;;;8.07;;
44822;SDS011;51097;51.984;5.650;2022-10-04T20:41:49;13.13;;;7.72;;
44822;SDS011;51097;51.984;5.650;2022-10-04T20:47:04;10.40;;;7.65;;
44822;SDS011;51097;51.984;5.650;2022-10-04T20:49:57;14.75;;;6.88;;
44822;SDS011;51097;51.984;5.650;2022-10-04T20:52:28;10.48;;;7.55;;
44822;SDS011;51097;51.984;5.650;2022-10-04T20:54:58;11.48;;;8.18;;
44822;SDS011;51097;51.984;5.650;2022-10-04T20:57:28;12.32;;;7.32;;
44822;SDS011;51097;51.984;5.650;2022-10-04T20:59:54;10.30;;;7.40;;
44822;SDS011;51097;51.984;5.650;2022-10-04T21:02:22;9.70;;;7.82;;
44822;SDS011;51097;51.984;5.650;2022-10-04T21:04:49;8.98;;;7.30;;
44822;SDS011;51097;51.984;5.650;2022-10-04T21:07:24;11.38;;;7.38;;
44822;SDS011;51097;51.984;5.650;2022-10-04T21:09:51;12.40;;;8.65;;
44822;SDS011;51097;51.984;5.650;2022-10-04T21:17:41;11.95;;;8.15;;
44822;SDS011;51097;51.984;5.650;2022-10-04T21:20:12;11.15;;;8.45;;
44822;SDS011;51097;51.984;5.650;2022-10-04T21:22:39;10.55;;;8.50;;
44822;SDS011;51097;51.984;5.650;2022-10-04T21:27:52;14.90;;;8.95;;
44822;SDS011;51097;51.984;5.650;2022-10-04T21:30:18;9.80;;;8.10;;
44822;SDS011;51097;51.984;5.650;2022-10-04T21:32:44;10.60;;;9.00;;
44822;SDS011;51097;51.984;5.650;2022-10-04T21:35:10;10.07;;;8.02;;
44822;SDS011;51097;51.984;5.650;2022-10-04T21:37:37;11.65;;;8.63;;
44822;SDS011;51097;51.984;5.650;2022-10-04T21:40:03;13.13;;;8.27;;
44822;SDS011;51097;51.984;5.650;2022-10-04T21:42:30;10.15;;;7.68;;
44822;SDS011;51097;51.984;5.650;2022-10-04T21:44:56;12.40;;;8.77;;
44822;SDS011;51097;51.984;5.650;2022-10-04T21:47:22;10.55;;;7.57;;
44822;SDS011;51097;51.984;5.650;2022-10-04T21:49:48;13.25;;;8.55;;
44822;SDS011;51097;51.984;5.650;2022-10-04T21:52:14;12.45;;;8.40;;
44822;SDS011;51097;51.984;5.650;2022-10-04T21:54:42;14.38;;;9.13;;
44822;SDS011;51097;51.984;5.650;2022-10-04T21:57:10;10.82;;;8.18;;
44822;SDS011;51097;51.984;5.650;2022-10-04T21:59:36;15.88;;;8.60;;
44822;SDS011;51097;51.984;5.650;2022-10-04T22:02:02;10.55;;;8.32;;
44822;SDS011;51097;51.984;5.650;2022-10-04T22:04:28;8.88;;;7.55;;
44822;SDS011;51097;51.984;5.650;2022-10-04T22:06:53;13.55;;;8.50;;
44822;SDS011;51097;51.984;5.650;2022-10-04T22:09:19;13.43;;;9.05;;
44822;SDS011;51097;51.984;5.650;2022-10-04T22:11:45;11.93;;;7.97;;
44822;SDS011;51097;51.984;5.650;2022-10-04T22:14:10;12.38;;;7.57;;
44822;SDS011;51097;51.984;5.650;2022-10-04T22:16:36;15.00;;;9.10;;
44822;SDS011;51097;51.984;5.650;2022-10-04T22:19:01;9.32;;;8.35;;
44822;SDS011;51097;51.984;5.650;2022-10-04T22:21:27;12.57;;;7.70;;
44822;SDS011;51097;51.984;5.650;2022-10-04T22:23:53;15.27;;;8.43;;
44822;SDS011;51097;51.984;5.650;2022-10-04T22:26:19;8.90;;;8.00;;
44822;SDS011;51097;51.984;5.650;2022-10-04T22:28:50;13.18;;;9.25;;
44822;SDS011;51097;51.984;5.650;2022-10-04T22:31:24;11.27;;;8.30;;
44822;SDS011;51097;51.984;5.650;2022-10-04T22:33:51;13.23;;;8.52;;
44822;SDS011;51097;51.984;5.650;2022-10-04T22:36:21;10.27;;;7.47;;
44822;SDS011;51097;51.984;5.650;2022-10-04T22:39:02;11.00;;;8.65;;
44822;SDS011;51097;51.984;5.650;2022-10-04T22:41:32;9.85;;;8.32;;
44822;SDS011;51097;51.984;5.650;2022-10-04T22:46:43;11.20;;;9.65;;
44822;SDS011;51097;51.984;5.650;2022-10-04T22:49:11;9.98;;;7.35;;
44822;SDS011;51097;51.984;5.650;2022-10-04T22:51:39;11.27;;;8.90;;
44822;SDS011;51097;51.984;5.650;2022-10-04T22:54:10;9.80;;;7.95;;
44822;SDS011;51097;51.984;5.650;2022-10-04T22:56:37;14.60;;;8.48;;
44822;SDS011;51097;51.984;5.650;2022-10-04T22:59:04;8.85;;;7.85;;
44822;SDS011;51097;51.984;5.650;2022-10-04T23:01:32;10.38;;;8.45;;
44822;SDS011;51097;51.984;5.650;2022-10-04T23:03:58;13.75;;;8.10;;
44822;SDS011;51097;51.984;5.650;2022-10-04T23:06:23;12.10;;;9.48;;
44822;SDS011;51097;51.984;5.650;2022-10-04T23:08:49;12.77;;;8.27;;
44822;SDS011;51097;51.984;5.650;2022-10-04T23:11:14;11.10;;;8.45;;
44822;SDS011;51097;51.984;5.650;2022-10-04T23:13:40;10.02;;;7.93;;
44822;SDS011;51097;51.984;5.650;2022-10-04T23:16:12;12.07;;;8.73;;
44822;SDS011;51097;51.984;5.650;2022-10-04T23:18:42;12.75;;;8.00;;
44822;SDS011;51097;51.984;5.650;2022-10-04T23:21:18;14.43;;;9.20;;
44822;SDS011;51097;51.984;5.650;2022-10-04T23:23:46;12.55;;;8.70;;
44822;SDS011;51097;51.984;5.650;2022-10-04T23:26:23;14.30;;;9.10;;
44822;SDS011;51097;51.984;5.650;2022-10-04T23:28:54;14.20;;;9.93;;
44822;SDS011;51097;51.984;5.650;2022-10-04T23:31:24;10.43;;;9.15;;
44822;SDS011;51097;51.984;5.650;2022-10-04T23:33:51;10.18;;;8.55;;
44822;SDS011;51097;51.984;5.650;2022-10-04T23:36:19;11.82;;;8.38;;
44822;SDS011;51097;51.984;5.650;2022-10-04T23:38:53;10.10;;;8.63;;
44822;SDS011;51097;51.984;5.650;2022-10-04T23:41:24;14.60;;;8.63;;
44822;SDS011;51097;51.984;5.650;2022-10-04T23:43:50;12.60;;;8.20;;
44822;SDS011;51097;51.984;5.650;2022-10-04T23:46:16;13.23;;;8.73;;
44822;SDS011;51097;51.984;5.650;2022-10-04T23:48:44;12.43;;;9.68;;
44822;SDS011;51097;51.984;5.650;2022-10-04T23:51:12;11.15;;;8.63;;
44822;SDS011;51097;51.984;5.650;2022-10-04T23:53:40;11.40;;;8.80;;
44822;SDS011;51097;51.984;5.650;2022-10-04T23:56:26;10.48;;;8.68;;
44822;SDS011;51097;51.984;5.650;2022-10-04T23:58:53;12.75;;;8.60;;
